Weather at RAF Brize Norton

Public forecast

Using degrees Celsius for public forecast. Weather courtesy of forecast.io.

Current aviation weather report (METAR) for RAF Brize Norton

Retrieved 2021/01/16 23:20 UTC (0 seconds ago):

EGVN 162320Z 26006KT 9999 BKN046 BKN230 06/01 Q1019 NOSIG RMK BLU BLU

Aviation forecast (TAF) for RAF Brize Norton

Retrieved 2021/01/16 21:47 UTC (1 hour ago):

TAF EGVN 161940Z 1621/1721 28008KT 9999 BKN040 PROB30 TEMPO 1702/1707 SCT022